Wetterdaten: Woche 16.06.14 - 22.06.14 (KW25)
Datum Zeit Temp. A. Feuchte A. Luftdruck Regen Wind Richtung Sonnenschein ET UV Solar Taupunkt Windchill Windben
16.06.2014 00:00 8,6 C 85 % 1020,6 hPa 0,0 l/m 0,0 km/h (0 Bft) N 0,00 h 0,025 mm 0,0 UV-I 0 W/m 6,2 C 8,6 C 0,1 km/h (0 Bft)
16.06.2014 01:00 7,4 C 89 % 1020,5 hPa 0,0 l/m 0,0 km/h (0 Bft) N 0,00 h 0,000 mm 0,0 UV-I 0 W/m 5,7 C 7,4 C 0,1 km/h (0 Bft)
16.06.2014 02:00 6,7 C 90 % 1020,4 hPa 0,0 l/m 0,0 km/h (0 Bft) N 0,00 h 0,000 mm 0,0 UV-I 0 W/m 5,2 C 6,7 C 0,1 km/h (0 Bft)
16.06.2014 03:00 5,9 C 92 % 1020,3 hPa 0,0 l/m 0,0 km/h (0 Bft) N 0,00 h 0,000 mm 0,0 UV-I 0 W/m 4,7 C 5,9 C 0,0 km/h (0 Bft)
16.06.2014 04:00 5,1 C 92 % 1020,1 hPa 0,0 l/m 0,0 km/h (0 Bft) N 0,00 h 0,000 mm 0,0 UV-I 0 W/m 3,9 C 5,1 C 0,0 km/h (0 Bft)
16.06.2014 05:00 4,7 C 93 % 1020,1 hPa 0,0 l/m 0,0 km/h (0 Bft) N 0,00 h 0,000 mm 0,0 UV-I 10 W/m 3,7 C 4,7 C 0,0 km/h (0 Bft)
16.06.2014 06:00 5,7 C 91 % 1020,1 hPa 0,0 l/m 0,0 km/h (0 Bft) N 0,00 h 0,000 mm 0,0 UV-I 21 W/m 4,5 C 5,7 C 0,0 km/h (0 Bft)
16.06.2014 07:00 8,9 C 85 % 1019,9 hPa 0,0 l/m 0,5 km/h (0 Bft) S-SO 0,57 h 0,000 mm 1,0 UV-I 193 W/m 6,5 C 8,9 C 1,6 km/h (1 Bft)
16.06.2014 08:00 13,5 C 72 % 1019,6 hPa 0,0 l/m 3,1 km/h (1 Bft) NW 1,00 h 0,102 mm 1,9 UV-I 481 W/m 8,5 C 13,5 C 5,4 km/h (1 Bft)
16.06.2014 09:00 15,9 C 60 % 1019,4 hPa 0,0 l/m 3,3 km/h (1 Bft) N 1,00 h 0,254 mm 2,5 UV-I 417 W/m 8,2 C 15,8 C 5,8 km/h (2 Bft)
16.06.2014 10:00 16,4 C 54 % 1019,1 hPa 0,0 l/m 3,5 km/h (1 Bft) N-NO 1,00 h 0,229 mm 2,8 UV-I 334 W/m 7,1 C 16,3 C 6,1 km/h (2 Bft)
16.06.2014 11:00 19,0 C 43 % 1018,8 hPa 0,0 l/m 4,9 km/h (1 Bft) SO 1,00 h 0,203 mm 6,3 UV-I 921 W/m 5,9 C 18,7 C 8,6 km/h (2 Bft)
16.06.2014 12:00 18,4 C 44 % 1018,5 hPa 0,0 l/m 5,1 km/h (1 Bft) NW 1,00 h 0,559 mm 3,2 UV-I 421 W/m 5,9 C 18,1 C 8,7 km/h (2 Bft)
16.06.2014 13:00 18,0 C 47 % 1018,2 hPa 0,0 l/m 5,0 km/h (1 Bft) N-NO 1,00 h 0,254 mm 3,0 UV-I 307 W/m 6,7 C 17,8 C 8,0 km/h (2 Bft)
16.06.2014 14:00 18,4 C 46 % 1017,6 hPa 0,0 l/m 1,6 km/h (1 Bft) N-NO 1,00 h 0,203 mm 3,0 UV-I 314 W/m 6,5 C 18,4 C 3,5 km/h (1 Bft)
16.06.2014 15:00 18,9 C 44 % 1017,1 hPa 0,0 l/m 3,5 km/h (1 Bft) W-SW 1,00 h 0,203 mm 2,3 UV-I 333 W/m 6,2 C 18,8 C 6,3 km/h (2 Bft)
16.06.2014 16:00 19,3 C 42 % 1016,9 hPa 0,0 l/m 4,2 km/h (1 Bft) NW 1,00 h 0,229 mm 2,7 UV-I 388 W/m 6,2 C 19,1 C 6,9 km/h (2 Bft)
16.06.2014 17:00 19,6 C 41 % 1016,6 hPa 0,0 l/m 5,2 km/h (1 Bft) NW 1,00 h 0,279 mm 1,6 UV-I 305 W/m 6,1 C 19,3 C 8,7 km/h (2 Bft)
16.06.2014 18:00 18,8 C 43 % 1016,4 hPa 0,0 l/m 2,1 km/h (1 Bft) N 1,00 h 0,229 mm 0,9 UV-I 142 W/m 5,9 C 18,8 C 4,4 km/h (1 Bft)
16.06.2014 19:00 18,2 C 46 % 1016,3 hPa 0,0 l/m 2,2 km/h (1 Bft) N 0,80 h 0,102 mm 0,5 UV-I 76 W/m 6,3 C 18,2 C 4,3 km/h (1 Bft)
16.06.2014 20:00 17,5 C 49 % 1016,3 hPa 0,0 l/m 5,0 km/h (1 Bft) N 0,00 h 0,076 mm 0,0 UV-I 15 W/m 6,6 C 16,7 C 8,4 km/h (2 Bft)
16.06.2014 21:00 15,5 C 65 % 1016,8 hPa 0,0 l/m 10,0 km/h (2 Bft) N 0,00 h 0,051 mm 0,0 UV-I 6 W/m 9,0 C 13,7 C 15,3 km/h (3 Bft)
16.06.2014 22:00 14,6 C 68 % 1017,2 hPa 0,0 l/m 9,0 km/h (2 Bft) N 0,00 h 0,051 mm 0,0 UV-I 0 W/m 8,8 C 13,2 C 14,2 km/h (3 Bft)
16.06.2014 23:00 13,8 C 73 % 1017,3 hPa 0,0 l/m 5,0 km/h (1 Bft) N 0,00 h 0,051 mm 0,0 UV-I 0 W/m 9,1 C 13,6 C 8,2 km/h (2 Bft)
17.06.2014 00:00 13,2 C 77 % 1017,4 hPa 0,0 l/m 3,8 km/h (1 Bft) N 0,00 h 0,025 mm 0,0 UV-I 0 W/m 9,3 C 13,0 C 6,3 km/h (2 Bft)
17.06.2014 01:00 12,8 C 77 % 1017,4 hPa 0,0 l/m 2,2 km/h (1 Bft) N 0,00 h 0,025 mm 0,0 UV-I 0 W/m 8,8 C 12,8 C 4,4 km/h (1 Bft)
17.06.2014 02:00 12,3 C 81 % 1017,2 hPa 0,0 l/m 2,1 km/h (1 Bft) N 0,00 h 0,025 mm 0,0 UV-I 0 W/m 9,1 C 12,3 C 4,0 km/h (1 Bft)
17.06.2014 03:00 12,2 C 83 % 1017,2 hPa 0,0 l/m 2,9 km/h (1 Bft) N 0,00 h 0,025 mm 0,0 UV-I 0 W/m 9,4 C 12,2 C 4,8 km/h (1 Bft)
17.06.2014 04:00 11,8 C 85 % 1017,1 hPa 0,0 l/m 1,3 km/h (1 Bft) N-NO 0,00 h 0,000 mm 0,0 UV-I 0 W/m 9,4 C 11,8 C 2,8 km/h (1 Bft)
17.06.2014 05:00 11,6 C 86 % 1017,2 hPa 0,0 l/m 2,6 km/h (1 Bft) N 0,00 h 0,025 mm 0,0 UV-I 16 W/m 9,3 C 11,6 C 4,8 km/h (1 Bft)
17.06.2014 06:00 11,9 C 85 % 1017,5 hPa 0,0 l/m 2,3 km/h (1 Bft) N 0,60 h 0,000 mm 0,0 UV-I 59 W/m 9,4 C 11,9 C 4,0 km/h (1 Bft)
17.06.2014 07:00 12,8 C 82 % 1017,8 hPa 0,0 l/m 6,2 km/h (2 Bft) N 1,00 h 0,025 mm 0,7 UV-I 173 W/m 9,9 C 12,5 C 9,5 km/h (2 Bft)
17.06.2014 08:00 13,8 C 79 % 1018,2 hPa 0,0 l/m 6,4 km/h (2 Bft) N-NO 1,00 h 0,102 mm 1,3 UV-I 210 W/m 10,2 C 13,4 C 10,6 km/h (2 Bft)
17.06.2014 09:00 14,8 C 75 % 1018,3 hPa 0,0 l/m 7,4 km/h (2 Bft) N 1,00 h 0,127 mm 2,1 UV-I 329 W/m 10,4 C 14,1 C 11,3 km/h (2 Bft)
17.06.2014 10:00 16,9 C 68 % 1018,3 hPa 0,0 l/m 5,2 km/h (1 Bft) N-NO 1,00 h 0,203 mm 3,6 UV-I 565 W/m 11,0 C 16,7 C 8,8 km/h (2 Bft)
17.06.2014 11:00 17,9 C 64 % 1018,2 hPa 0,0 l/m 5,8 km/h (2 Bft) N 1,00 h 0,305 mm 3,7 UV-I 448 W/m 11,1 C 17,6 C 9,3 km/h (2 Bft)
17.06.2014 12:00 18,6 C 61 % 1018,0 hPa 0,0 l/m 5,7 km/h (1 Bft) N 1,00 h 0,279 mm 4,3 UV-I 510 W/m 11,0 C 18,2 C 9,5 km/h (2 Bft)
17.06.2014 13:00 19,0 C 56 % 1017,6 hPa 0,0 l/m 3,7 km/h (1 Bft) N 1,00 h 0,330 mm 3,6 UV-I 391 W/m 10,1 C 18,9 C 6,7 km/h (2 Bft)
17.06.2014 14:00 19,2 C 55 % 1017,4 hPa 0,0 l/m 3,3 km/h (1 Bft) O-NO 1,00 h 0,254 mm 3,2 UV-I 340 W/m 10,0 C 19,1 C 6,0 km/h (2 Bft)
17.06.2014 15:00 18,9 C 56 % 1017,1 hPa 0,0 l/m 4,8 km/h (1 Bft) NO 1,00 h 0,229 mm 1,7 UV-I 179 W/m 9,8 C 18,7 C 8,6 km/h (2 Bft)
17.06.2014 16:00 16,1 C 75 % 1017,4 hPa 0,2 l/m 4,6 km/h (1 Bft) S-SO 0,25 h 0,127 mm 0,6 UV-I 46 W/m 11,5 C 15,9 C 8,1 km/h (2 Bft)
17.06.2014 17:00 14,8 C 87 % 1017,3 hPa 0,0 l/m 1,0 km/h (0 Bft) S-SO 0,95 h 0,051 mm 0,6 UV-I 89 W/m 12,6 C 14,8 C 2,2 km/h (1 Bft)
17.06.2014 18:00 15,8 C 83 % 1017,1 hPa 0,0 l/m 1,7 km/h (1 Bft) S-SO 1,00 h 0,051 mm 0,8 UV-I 139 W/m 12,8 C 15,8 C 3,8 km/h (1 Bft)
17.06.2014 19:00 16,2 C 73 % 1017,2 hPa 0,0 l/m 0,7 km/h (0 Bft) O-NO 1,00 h 0,076 mm 0,5 UV-I 92 W/m 11,4 C 16,2 C 2,3 km/h (1 Bft)
17.06.2014 20:00 15,5 C 74 % 1017,5 hPa 0,2 l/m 0,2 km/h (0 Bft) O-NO 0,23 h 0,051 mm 0,0 UV-I 36 W/m 10,9 C 15,5 C 1,1 km/h (0 Bft)
17.06.2014 21:00 14,1 C 85 % 1018,0 hPa 0,0 l/m 0,2 km/h (0 Bft) O 0,00 h 0,025 mm 0,0 UV-I 10 W/m 11,6 C 14,1 C 1,1 km/h (0 Bft)
17.06.2014 22:00 12,6 C 91 % 1018,3 hPa 0,0 l/m 0,2 km/h (0 Bft) O 0,00 h 0,000 mm 0,0 UV-I 0 W/m 11,1 C 12,6 C 1,4 km/h (1 Bft)
17.06.2014 23:00 11,7 C 91 % 1018,4 hPa 0,0 l/m 2,2 km/h (1 Bft) O-NO 0,00 h 0,000 mm 0,0 UV-I 0 W/m 10,3 C 11,7 C 3,9 km/h (1 Bft)
18.06.2014 00:00 10,3 C 93 % 1018,6 hPa 0,0 l/m 0,2 km/h (0 Bft) O 0,00 h 0,000 mm 0,0 UV-I 0 W/m 9,2 C 10,3 C 0,7 km/h (0 Bft)
18.06.2014 01:00 9,3 C 95 % 1018,8 hPa 0,0 l/m 0,1 km/h (0 Bft) O-SO 0,00 h 0,000 mm 0,0 UV-I 0 W/m 8,5 C 9,3 C 0,3 km/h (0 Bft)
18.06.2014 02:00 8,4 C 95 % 1018,8 hPa 0,0 l/m 0,0 km/h (0 Bft) N 0,00 h 0,000 mm 0,0 UV-I 0 W/m 7,6 C 8,4 C 0,1 km/h (0 Bft)
18.06.2014 03:00 7,6 C 95 % 1018,6 hPa 0,0 l/m 0,0 km/h (0 Bft) N 0,00 h 0,000 mm 0,0 UV-I 0 W/m 6,8 C 7,6 C 0,0 km/h (0 Bft)
18.06.2014 04:00 7,0 C 95 % 1018,5 hPa 0,0 l/m 0,0 km/h (0 Bft) N 0,00 h 0,000 mm 0,0 UV-I 0 W/m 6,2 C 7,0 C 0,0 km/h (0 Bft)
18.06.2014 05:00 6,5 C 95 % 1018,7 hPa 0,0 l/m 0,0 km/h (0 Bft) N 0,00 h 0,000 mm 0,0 UV-I 12 W/m 5,9 C 6,5 C 0,0 km/h (0 Bft)
18.06.2014 06:00 7,2 C 95 % 1019,0 hPa 0,0 l/m 0,0 km/h (0 Bft) N 0,00 h 0,000 mm 0,0 UV-I 28 W/m 6,4 C 7,2 C 0,0 km/h (0 Bft)
18.06.2014 07:00 10,0 C 91 % 1019,3 hPa 0,0 l/m 0,1 km/h (0 Bft) S-SO 0,55 h 0,000 mm 0,8 UV-I 184 W/m 8,6 C 10,0 C 0,5 km/h (0 Bft)
18.06.2014 08:00 15,1 C 78 % 1019,4 hPa 0,0 l/m 1,4 km/h (1 Bft) N 1,00 h 0,076 mm 1,6 UV-I 463 W/m 11,2 C 15,1 C 3,2 km/h (1 Bft)
18.06.2014 09:00 17,9 C 64 % 1019,4 hPa 0,0 l/m 2,9 km/h (1 Bft) SO 1,00 h 0,254 mm 3,0 UV-I 643 W/m 11,0 C 17,9 C 5,1 km/h (1 Bft)
18.06.2014 10:00 18,4 C 57 % 1019,4 hPa 0,0 l/m 3,2 km/h (1 Bft) N 1,00 h 0,356 mm 2,5 UV-I 264 W/m 9,7 C 18,3 C 5,3 km/h (1 Bft)
18.06.2014 11:00 20,6 C 49 % 1019,2 hPa 0,0 l/m 4,0 km/h (1 Bft) N-NO 1,00 h 0,178 mm 5,3 UV-I 832 W/m 9,5 C 20,5 C 7,2 km/h (2 Bft)
18.06.2014 12:00 20,9 C 43 % 1019,0 hPa 0,0 l/m 4,8 km/h (1 Bft) N 1,00 h 0,533 mm 5,2 UV-I 589 W/m 8,0 C 20,8 C 8,6 km/h (2 Bft)
18.06.2014 13:00 21,9 C 41 % 1018,6 hPa 0,0 l/m 4,8 km/h (1 Bft) SO 1,00 h 0,406 mm 5,5 UV-I 682 W/m 8,0 C 21,8 C 8,3 km/h (2 Bft)
18.06.2014 14:00 21,7 C 40 % 1018,4 hPa 0,0 l/m 3,6 km/h (1 Bft) N 1,00 h 0,483 mm 4,6 UV-I 591 W/m 7,5 C 21,7 C 5,8 km/h (2 Bft)
18.06.2014 15:00 22,4 C 40 % 1018,0 hPa 0,0 l/m 3,7 km/h (1 Bft) N 1,00 h 0,381 mm 3,5 UV-I 462 W/m 8,2 C 22,4 C 6,5 km/h (2 Bft)
18.06.2014 16:00 22,4 C 40 % 1017,6 hPa 0,0 l/m 3,8 km/h (1 Bft) N 1,00 h 0,330 mm 3,2 UV-I 499 W/m 8,2 C 22,2 C 6,3 km/h (2 Bft)
18.06.2014 17:00 21,6 C 42 % 1017,0 hPa 0,0 l/m 5,3 km/h (1 Bft) N-NO 1,00 h 0,356 mm 1,4 UV-I 149 W/m 8,0 C 21,4 C 8,6 km/h (2 Bft)
18.06.2014 18:00 21,5 C 41 % 1016,7 hPa 0,0 l/m 6,6 km/h (2 Bft) N 0,93 h 0,152 mm 1,0 UV-I 81 W/m 7,7 C 21,1 C 9,9 km/h (2 Bft)
18.06.2014 19:00 20,7 C 44 % 1016,5 hPa 0,0 l/m 5,7 km/h (1 Bft) N-NO 0,00 h 0,102 mm 0,0 UV-I 41 W/m 8,0 C 20,4 C 9,4 km/h (2 Bft)
18.06.2014 20:00 19,3 C 49 % 1016,5 hPa 0,0 l/m 2,9 km/h (1 Bft) N-NO 0,00 h 0,076 mm 0,0 UV-I 22 W/m 8,4 C 19,3 C 5,3 km/h (1 Bft)
18.06.2014 21:00 17,5 C 55 % 1016,7 hPa 0,0 l/m 2,8 km/h (1 Bft) N-NO 0,00 h 0,051 mm 0,0 UV-I 6 W/m 8,4 C 17,5 C 5,0 km/h (1 Bft)
18.06.2014 22:00 15,0 C 68 % 1017,1 hPa 0,0 l/m 2,1 km/h (1 Bft) N 0,00 h 0,025 mm 0,0 UV-I 0 W/m 9,2 C 15,0 C 3,9 km/h (1 Bft)
18.06.2014 23:00 13,4 C 75 % 1017,3 hPa 0,0 l/m 0,9 km/h (0 Bft) N 0,00 h 0,025 mm 0,0 UV-I 0 W/m 9,1 C 13,4 C 1,9 km/h (1 Bft)
19.06.2014 00:00 12,6 C 77 % 1017,5 hPa 0,0 l/m 2,0 km/h (1 Bft) N 0,00 h 0,025 mm 0,0 UV-I 0 W/m 8,8 C 12,6 C 3,4 km/h (1 Bft)
19.06.2014 01:00 11,1 C 84 % 1017,4 hPa 0,0 l/m 0,1 km/h (0 Bft) N 0,00 h 0,025 mm 0,0 UV-I 0 W/m 8,6 C 11,1 C 0,5 km/h (0 Bft)
19.06.2014 02:00 10,1 C 89 % 1017,3 hPa 0,0 l/m 0,0 km/h (0 Bft) N 0,00 h 0,000 mm 0,0 UV-I 0 W/m 8,3 C 10,1 C 0,0 km/h (0 Bft)
19.06.2014 03:00 9,2 C 91 % 1017,1 hPa 0,0 l/m 0,0 km/h (0 Bft) N 0,00 h 0,000 mm 0,0 UV-I 0 W/m 7,8 C 9,2 C 0,2 km/h (0 Bft)
19.06.2014 04:00 8,6 C 92 % 1016,8 hPa 0,0 l/m 0,1 km/h (0 Bft) O-SO 0,00 h 0,000 mm 0,0 UV-I 0 W/m 7,5 C 8,6 C 0,4 km/h (0 Bft)
19.06.2014 05:00 8,4 C 93 % 1016,6 hPa 0,0 l/m 0,1 km/h (0 Bft) O-SO 0,00 h 0,000 mm 0,0 UV-I 14 W/m 7,3 C 8,4 C 0,4 km/h (0 Bft)
19.06.2014 06:00 9,1 C 92 % 1016,4 hPa 0,0 l/m 0,5 km/h (0 Bft) SO 0,00 h 0,000 mm 0,0 UV-I 27 W/m 7,8 C 9,1 C 1,3 km/h (1 Bft)
19.06.2014 07:00 11,5 C 87 % 1016,2 hPa 0,0 l/m 0,2 km/h (0 Bft) S-SO 0,85 h 0,025 mm 0,9 UV-I 194 W/m 9,4 C 11,5 C 1,1 km/h (1 Bft)
19.06.2014 08:00 15,4 C 77 % 1015,9 hPa 0,0 l/m 3,5 km/h (1 Bft) N-NW 1,00 h 0,102 mm 1,6 UV-I 373 W/m 11,4 C 15,4 C 5,8 km/h (2 Bft)
19.06.2014 09:00 17,0 C 70 % 1015,5 hPa 0,0 l/m 2,3 km/h (1 Bft) W-NW 1,00 h 0,203 mm 2,9 UV-I 517 W/m 11,6 C 17,0 C 4,4 km/h (1 Bft)
19.06.2014 10:00 19,0 C 64 % 1015,0 hPa 0,0 l/m 3,8 km/h (1 Bft) N 1,00 h 0,279 mm 4,0 UV-I 617 W/m 12,1 C 18,9 C 6,8 km/h (2 Bft)
19.06.2014 11:00 19,7 C 58 % 1014,5 hPa 0,0 l/m 8,9 km/h (2 Bft) W 1,00 h 0,356 mm 4,0 UV-I 445 W/m 11,1 C 18,7 C 13,7 km/h (3 Bft)
19.06.2014 12:00 20,6 C 47 % 1014,3 hPa 0,0 l/m 13,9 km/h (3 Bft) W 1,00 h 0,330 mm 5,8 UV-I 664 W/m 9,0 C 18,3 C 21,2 km/h (4 Bft)
19.06.2014 13:00 21,3 C 45 % 1014,1 hPa 0,0 l/m 11,8 km/h (2 Bft) W 1,00 h 0,533 mm 6,0 UV-I 733 W/m 8,8 C 19,6 C 17,9 km/h (3 Bft)
19.06.2014 14:00 22,4 C 38 % 1013,9 hPa 0,0 l/m 13,2 km/h (3 Bft) W-NW 1,00 h 0,533 mm 6,5 UV-I 843 W/m 7,3 C 20,6 C 19,8 km/h (3 Bft)
19.06.2014 15:00 22,2 C 39 % 1013,5 hPa 0,0 l/m 11,6 km/h (2 Bft) W-NW 1,00 h 0,635 mm 4,8 UV-I 715 W/m 7,5 C 20,7 C 17,8 km/h (3 Bft)
19.06.2014 16:00 21,9 C 40 % 1013,2 hPa 0,0 l/m 10,5 km/h (2 Bft) NW 1,00 h 0,483 mm 3,3 UV-I 481 W/m 7,7 C 20,6 C 16,0 km/h (3 Bft)
19.06.2014 17:00 21,3 C 46 % 1012,8 hPa 0,0 l/m 10,1 km/h (2 Bft) NW 1,00 h 0,381 mm 1,8 UV-I 319 W/m 9,1 C 20,1 C 15,6 km/h (3 Bft)
19.06.2014 18:00 20,0 C 50 % 1012,6 hPa 0,0 l/m 9,9 km/h (2 Bft) N 1,00 h 0,254 mm 0,7 UV-I 98 W/m 9,2 C 18,8 C 14,9 km/h (3 Bft)
19.06.2014 19:00 18,9 C 53 % 1012,9 hPa 0,0 l/m 10,6 km/h (2 Bft) N-NW 0,67 h 0,127 mm 0,5 UV-I 58 W/m 9,1 C 17,3 C 16,2 km/h (3 Bft)
19.06.2014 20:00 17,6 C 58 % 1013,2 hPa 0,0 l/m 9,5 km/h (2 Bft) N 0,00 h 0,102 mm 0,0 UV-I 17 W/m 9,2 C 16,3 C 14,5 km/h (3 Bft)
19.06.2014 21:00 16,3 C 63 % 1013,5 hPa 0,0 l/m 8,3 km/h (2 Bft) N 0,00 h 0,076 mm 0,0 UV-I 0 W/m 9,2 C 15,2 C 12,8 km/h (3 Bft)
19.06.2014 22:00 14,8 C 73 % 1014,0 hPa 0,0 l/m 9,3 km/h (2 Bft) N 0,00 h 0,051 mm 0,0 UV-I 0 W/m 9,9 C 13,2 C 14,1 km/h (3 Bft)
19.06.2014 23:00 13,0 C 86 % 1014,3 hPa 0,8 l/m 5,0 km/h (1 Bft) N-NW 0,00 h 0,051 mm 0,0 UV-I 0 W/m 10,8 C 12,5 C 8,9 km/h (2 Bft)
20.06.2014 00:00 12,4 C 92 % 1014,4 hPa 0,0 l/m 2,7 km/h (1 Bft) N-NW 0,00 h 0,025 mm 0,0 UV-I 0 W/m 11,1 C 12,4 C 4,8 km/h (1 Bft)
20.06.2014 01:00 12,3 C 93 % 1014,1 hPa 0,6 l/m 4,0 km/h (1 Bft) NW 0,00 h 0,000 mm 0,0 UV-I 0 W/m 11,1 C 12,3 C 6,6 km/h (2 Bft)
20.06.2014 02:00 12,0 C 92 % 1013,8 hPa 0,0 l/m 4,8 km/h (1 Bft) N-NW 0,00 h 0,000 mm 0,0 UV-I 0 W/m 10,7 C 11,6 C 8,4 km/h (2 Bft)
20.06.2014 03:00 11,5 C 91 % 1013,7 hPa 0,0 l/m 3,3 km/h (1 Bft) NW 0,00 h 0,000 mm 0,0 UV-I 0 W/m 10,1 C 11,5 C 5,9 km/h (2 Bft)
20.06.2014 04:00 11,1 C 90 % 1013,8 hPa 0,0 l/m 3,4 km/h (1 Bft) N-NW 0,00 h 0,000 mm 0,0 UV-I 0 W/m 9,5 C 11,1 C 6,1 km/h (2 Bft)
20.06.2014 05:00 10,9 C 90 % 1013,5 hPa 0,0 l/m 1,8 km/h (1 Bft) W-NW 0,00 h 0,000 mm 0,0 UV-I 13 W/m 9,4 C 10,9 C 3,4 km/h (1 Bft)
20.06.2014 06:00 10,9 C 89 % 1013,4 hPa 0,0 l/m 4,0 km/h (1 Bft) W 0,27 h 0,000 mm 0,0 UV-I 42 W/m 9,2 C 10,9 C 6,2 km/h (2 Bft)
20.06.2014 07:00 11,6 C 82 % 1013,5 hPa 0,0 l/m 7,6 km/h (2 Bft) W 0,80 h 0,025 mm 0,7 UV-I 112 W/m 8,7 C 10,6 C 12,5 km/h (3 Bft)
20.06.2014 08:00 12,0 C 76 % 1013,8 hPa 0,0 l/m 10,1 km/h (2 Bft) W-NW 1,00 h 0,076 mm 0,8 UV-I 135 W/m 7,9 C 9,9 C 14,6 km/h (3 Bft)
20.06.2014 09:00 11,6 C 82 % 1014,1 hPa 0,0 l/m 6,8 km/h (2 Bft) N 1,00 h 0,102 mm 1,1 UV-I 155 W/m 8,6 C 10,7 C 11,0 km/h (2 Bft)
20.06.2014 10:00 13,2 C 70 % 1014,1 hPa 0,0 l/m 9,4 km/h (2 Bft) W-NW 1,00 h 0,076 mm 2,1 UV-I 280 W/m 7,8 C 11,4 C 14,1 km/h (3 Bft)
20.06.2014 11:00 13,5 C 69 % 1014,1 hPa 0,0 l/m 8,9 km/h (2 Bft) W 1,00 h 0,178 mm 2,8 UV-I 330 W/m 7,9 C 12,0 C 13,4 km/h (3 Bft)
20.06.2014 12:00 14,6 C 63 % 1014,1 hPa 0,0 l/m 11,3 km/h (2 Bft) W-NW 1,00 h 0,203 mm 2,8 UV-I 307 W/m 7,7 C 12,2 C 16,6 km/h (3 Bft)
20.06.2014 13:00 14,1 C 67 % 1014,3 hPa 0,0 l/m 8,4 km/h (2 Bft) W-NW 1,00 h 0,203 mm 1,7 UV-I 179 W/m 8,0 C 12,9 C 12,4 km/h (3 Bft)
20.06.2014 14:00 13,5 C 76 % 1014,4 hPa 0,6 l/m 7,0 km/h (2 Bft) N-NW 0,92 h 0,127 mm 2,0 UV-I 201 W/m 9,4 C 12,6 C 11,2 km/h (2 Bft)
20.06.2014 15:00 13,6 C 80 % 1014,5 hPa 0,8 l/m 8,7 km/h (2 Bft) W-NW 1,00 h 0,127 mm 2,3 UV-I 289 W/m 10,2 C 12,1 C 13,7 km/h (3 Bft)
20.06.2014 16:00 14,2 C 78 % 1014,6 hPa 0,0 l/m 7,2 km/h (2 Bft) N-NW 1,00 h 0,178 mm 2,0 UV-I 318 W/m 10,4 C 13,3 C 11,7 km/h (2 Bft)
20.06.2014 17:00 15,2 C 67 % 1014,6 hPa 0,0 l/m 9,6 km/h (2 Bft) N-NW 1,00 h 0,178 mm 1,2 UV-I 190 W/m 9,1 C 13,5 C 15,2 km/h (3 Bft)
20.06.2014 18:00 13,5 C 74 % 1015,2 hPa 0,0 l/m 11,1 km/h (2 Bft) NW 0,83 h 0,152 mm 0,6 UV-I 74 W/m 8,8 C 11,2 C 16,5 km/h (3 Bft)
20.06.2014 19:00 13,5 C 73 % 1015,5 hPa 0,0 l/m 7,3 km/h (2 Bft) NW 0,98 h 0,076 mm 0,0 UV-I 82 W/m 8,7 C 12,5 C 11,0 km/h (2 Bft)
20.06.2014 20:00 13,5 C 71 % 1015,5 hPa 0,0 l/m 7,4 km/h (2 Bft) W-NW 0,00 h 0,076 mm 0,0 UV-I 18 W/m 8,3 C 12,7 C 11,6 km/h (2 Bft)
20.06.2014 21:00 12,5 C 74 % 1016,0 hPa 0,0 l/m 2,8 km/h (1 Bft) W-NW 0,00 h 0,051 mm 0,0 UV-I 9 W/m 8,0 C 12,3 C 5,0 km/h (1 Bft)
20.06.2014 22:00 10,9 C 83 % 1016,5 hPa 0,0 l/m 0,0 km/h (0 Bft) N 0,00 h 0,025 mm 0,0 UV-I 0 W/m 8,2 C 10,9 C 0,0 km/h (0 Bft)
20.06.2014 23:00 10,8 C 86 % 1016,7 hPa 0,0 l/m 0,1 km/h (0 Bft) N-NW 0,00 h 0,000 mm 0,0 UV-I 0 W/m 8,5 C 10,8 C 0,3 km/h (0 Bft)
21.06.2014 00:00 10,5 C 88 % 1016,8 hPa 0,0 l/m 0,5 km/h (0 Bft) S-SO 0,00 h 0,000 mm 0,0 UV-I 0 W/m 8,6 C 10,5 C 1,1 km/h (1 Bft)
21.06.2014 01:00 10,3 C 88 % 1016,8 hPa 0,0 l/m 0,3 km/h (0 Bft) NW 0,00 h 0,000 mm 0,0 UV-I 0 W/m 8,5 C 10,3 C 1,0 km/h (0 Bft)
21.06.2014 02:00 10,1 C 88 % 1016,8 hPa 0,0 l/m 0,3 km/h (0 Bft) NW 0,00 h 0,000 mm 0,0 UV-I 0 W/m 8,2 C 10,1 C 0,9 km/h (0 Bft)
21.06.2014 03:00 9,3 C 90 % 1016,7 hPa 0,0 l/m 0,3 km/h (0 Bft) S 0,00 h 0,000 mm 0,0 UV-I 0 W/m 7,7 C 9,3 C 0,9 km/h (0 Bft)
21.06.2014 04:00 9,1 C 90 % 1016,8 hPa 0,0 l/m 0,1 km/h (0 Bft) SO 0,00 h 0,000 mm 0,0 UV-I 0 W/m 7,6 C 9,1 C 0,5 km/h (0 Bft)
21.06.2014 05:00 9,1 C 90 % 1017,0 hPa 0,0 l/m 0,1 km/h (0 Bft) N-NW 0,00 h 0,000 mm 0,0 UV-I 10 W/m 7,6 C 9,1 C 0,6 km/h (0 Bft)
21.06.2014 06:00 9,6 C 88 % 1017,0 hPa 0,0 l/m 0,1 km/h (0 Bft) N-NW 0,00 h 0,000 mm 0,0 UV-I 21 W/m 7,6 C 9,6 C 0,5 km/h (0 Bft)
21.06.2014 07:00 10,1 C 86 % 1017,2 hPa 0,0 l/m 0,7 km/h (0 Bft) W-NW 0,33 h 0,000 mm 0,5 UV-I 45 W/m 7,9 C 10,1 C 1,9 km/h (1 Bft)
21.06.2014 08:00 11,4 C 82 % 1017,6 hPa 0,0 l/m 2,9 km/h (1 Bft) W-SW 1,00 h 0,025 mm 1,3 UV-I 203 W/m 8,4 C 11,4 C 5,0 km/h (1 Bft)
21.06.2014 09:00 13,2 C 72 % 1017,5 hPa 0,0 l/m 4,6 km/h (1 Bft) W 1,00 h 0,102 mm 2,1 UV-I 320 W/m 8,3 C 13,1 C 7,2 km/h (2 Bft)
21.06.2014 10:00 13,6 C 67 % 1017,4 hPa 0,0 l/m 3,7 km/h (1 Bft) W 1,00 h 0,178 mm 1,5 UV-I 189 W/m 7,5 C 13,6 C 6,1 km/h (2 Bft)
21.06.2014 11:00 14,6 C 62 % 1017,4 hPa 0,0 l/m 5,8 km/h (1 Bft) W 1,00 h 0,102 mm 3,2 UV-I 330 W/m 7,4 C 14,0 C 9,3 km/h (2 Bft)
21.06.2014 12:00 15,0 C 57 % 1017,3 hPa 0,0 l/m 9,6 km/h (2 Bft) W-NW 1,00 h 0,203 mm 2,2 UV-I 228 W/m 6,6 C 13,3 C 14,9 km/h (3 Bft)
21.06.2014 13:00 14,9 C 58 % 1017,3 hPa 0,0 l/m 9,1 km/h (2 Bft) W 1,00 h 0,178 mm 3,0 UV-I 312 W/m 6,7 C 13,5 C 13,5 km/h (3 Bft)
21.06.2014 14:00 16,0 C 56 % 1017,0 hPa 0,0 l/m 9,8 km/h (2 Bft) W-NW 1,00 h 0,203 mm 3,9 UV-I 385 W/m 7,1 C 14,3 C 14,7 km/h (3 Bft)
21.06.2014 15:00 16,6 C 54 % 1016,7 hPa 0,0 l/m 10,1 km/h (2 Bft) W-SW 1,00 h 0,279 mm 2,7 UV-I 306 W/m 7,3 C 14,9 C 15,1 km/h (3 Bft)
21.06.2014 16:00 16,3 C 55 % 1016,8 hPa 0,0 l/m 10,6 km/h (2 Bft) W 1,00 h 0,000 mm 2,0 UV-I 265 W/m 7,3 C 14,4 C 15,7 km/h (3 Bft)
21.06.2014 17:00 16,4 C 55 % 1016,8 hPa 0,0 l/m 10,0 km/h (2 Bft) NW 1,00 h 0,229 mm 1,1 UV-I 159 W/m 7,4 C 14,7 C 15,2 km/h (3 Bft)
21.06.2014 18:00 16,2 C 55 % 1016,7 hPa 0,0 l/m 10,1 km/h (2 Bft) NW 1,00 h 0,152 mm 0,8 UV-I 143 W/m 7,2 C 14,5 C 15,3 km/h (3 Bft)
21.06.2014 19:00 15,8 C 57 % 1016,6 hPa 0,0 l/m 9,1 km/h (2 Bft) W-NW 1,00 h 0,127 mm 0,6 UV-I 82 W/m 7,3 C 14,5 C 13,6 km/h (3 Bft)
21.06.2014 20:00 15,2 C 59 % 1016,6 hPa 0,0 l/m 5,8 km/h (2 Bft) W 0,12 h 0,102 mm 0,0 UV-I 31 W/m 7,2 C 15,0 C 9,0 km/h (2 Bft)
21.06.2014 21:00 13,5 C 65 % 1017,1 hPa 0,0 l/m 2,0 km/h (1 Bft) W 0,00 h 0,051 mm 0,0 UV-I 7 W/m 7,1 C 13,5 C 3,5 km/h (1 Bft)
21.06.2014 22:00 10,8 C 78 % 1017,5 hPa 0,0 l/m 0,0 km/h (0 Bft) N 0,00 h 0,025 mm 0,0 UV-I 0 W/m 7,2 C 10,8 C 0,0 km/h (0 Bft)
21.06.2014 23:00 9,2 C 86 % 1017,6 hPa 0,0 l/m 0,0 km/h (0 Bft) O-NO 0,00 h 0,025 mm 0,0 UV-I 0 W/m 7,0 C 9,2 C 0,2 km/h (0 Bft)
22.06.2014 00:00 8,3 C 89 % 1017,8 hPa 0,0 l/m 0,3 km/h (0 Bft) O 0,00 h 0,000 mm 0,0 UV-I 0 W/m 6,6 C 8,3 C 1,0 km/h (0 Bft)
22.06.2014 01:00 7,3 C 91 % 1017,9 hPa 0,0 l/m 0,1 km/h (0 Bft) O 0,00 h 0,000 mm 0,0 UV-I 0 W/m 5,9 C 7,3 C 0,3 km/h (0 Bft)
22.06.2014 02:00 6,8 C 93 % 1017,9 hPa 0,0 l/m 0,1 km/h (0 Bft) O-NO 0,00 h 0,000 mm 0,0 UV-I 0 W/m 5,7 C 6,8 C 0,7 km/h (0 Bft)
22.06.2014 03:00 6,2 C 93 % 1017,8 hPa 0,0 l/m 0,2 km/h (0 Bft) O 0,00 h 0,000 mm 0,0 UV-I 0 W/m 5,2 C 6,2 C 0,9 km/h (0 Bft)
22.06.2014 04:00 5,5 C 93 % 1017,8 hPa 0,0 l/m 0,0 km/h (0 Bft) N 0,00 h 0,000 mm 0,0 UV-I 0 W/m 4,5 C 5,5 C 0,3 km/h (0 Bft)
22.06.2014 05:00 4,9 C 94 % 1018,0 hPa 0,0 l/m 0,0 km/h (0 Bft) N 0,00 h 0,000 mm 0,0 UV-I 13 W/m 4,0 C 4,9 C 0,3 km/h (0 Bft)
22.06.2014 06:00 6,0 C 94 % 1018,3 hPa 0,0 l/m 0,0 km/h (0 Bft) NW 0,02 h 0,000 mm 0,0 UV-I 36 W/m 5,2 C 6,0 C 0,5 km/h (0 Bft)
22.06.2014 07:00 7,9 C 92 % 1018,4 hPa 0,0 l/m 0,0 km/h (0 Bft) N 0,67 h 0,025 mm 0,7 UV-I 90 W/m 6,7 C 7,9 C 0,5 km/h (0 Bft)
22.06.2014 08:00 10,3 C 87 % 1018,6 hPa 0,0 l/m 0,7 km/h (0 Bft) O-SO 1,00 h 0,051 mm 1,0 UV-I 154 W/m 8,2 C 10,3 C 2,1 km/h (1 Bft)
22.06.2014 09:00 13,4 C 76 % 1018,5 hPa 0,0 l/m 3,9 km/h (1 Bft) S-SW 1,00 h 0,076 mm 2,0 UV-I 273 W/m 9,3 C 13,2 C 6,7 km/h (2 Bft)
22.06.2014 10:00 16,5 C 63 % 1018,5 hPa 0,0 l/m 9,4 km/h (2 Bft) W 1,00 h 0,152 mm 4,3 UV-I 596 W/m 9,4 C 15,0 C 14,4 km/h (3 Bft)
22.06.2014 11:00 18,7 C 54 % 1018,2 hPa 0,0 l/m 10,8 km/h (2 Bft) W-NW 1,00 h 0,381 mm 4,1 UV-I 539 W/m 9,1 C 17,0 C 16,3 km/h (3 Bft)
22.06.2014 12:00 19,3 C 52 % 1017,9 hPa 0,0 l/m 11,0 km/h (2 Bft) W-NW 1,00 h 0,356 mm 4,7 UV-I 538 W/m 9,1 C 17,6 C 15,6 km/h (3 Bft)
22.06.2014 13:00 19,7 C 49 % 1017,8 hPa 0,0 l/m 11,5 km/h (2 Bft) W 1,00 h 0,381 mm 5,5 UV-I 556 W/m 8,6 C 17,9 C 17,5 km/h (3 Bft)
22.06.2014 14:00 20,0 C 47 % 1017,5 hPa 0,0 l/m 13,1 km/h (3 Bft) W 1,00 h 0,457 mm 3,7 UV-I 463 W/m 8,2 C 17,8 C 19,7 km/h (3 Bft)
22.06.2014 15:00 20,0 C 50 % 1017,7 hPa 0,0 l/m 13,3 km/h (3 Bft) N 1,00 h 0,356 mm 3,2 UV-I 378 W/m 9,1 C 17,8 C 21,0 km/h (4 Bft)
22.06.2014 16:00 18,2 C 61 % 1018,1 hPa 0,0 l/m 11,3 km/h (2 Bft) N 1,00 h 0,356 mm 2,0 UV-I 259 W/m 10,4 C 16,2 C 16,4 km/h (3 Bft)
22.06.2014 17:00 18,0 C 59 % 1018,4 hPa 0,0 l/m 8,9 km/h (2 Bft) N 1,00 h 0,229 mm 1,6 UV-I 219 W/m 9,7 C 16,9 C 13,8 km/h (3 Bft)
22.06.2014 18:00 17,8 C 58 % 1018,3 hPa 0,0 l/m 8,7 km/h (2 Bft) N 1,00 h 0,178 mm 0,8 UV-I 142 W/m 9,5 C 16,7 C 13,2 km/h (3 Bft)
22.06.2014 19:00 17,5 C 57 % 1018,6 hPa 0,0 l/m 7,1 km/h (2 Bft) N-NW 0,93 h 0,127 mm 0,6 UV-I 84 W/m 8,9 C 17,0 C 10,6 km/h (2 Bft)
22.06.2014 20:00 16,6 C 59 % 1018,9 hPa 0,0 l/m 4,3 km/h (1 Bft) N 0,00 h 0,102 mm 0,0 UV-I 29 W/m 8,6 C 16,5 C 6,9 km/h (2 Bft)
22.06.2014 21:00 14,7 C 63 % 1019,4 hPa 0,0 l/m 1,7 km/h (1 Bft) N 0,00 h 0,051 mm 0,0 UV-I 10 W/m 7,7 C 14,7 C 3,2 km/h (1 Bft)
22.06.2014 22:00 12,2 C 74 % 1019,9 hPa 0,0 l/m 0,0 km/h (0 Bft) N 0,00 h 0,025 mm 0,0 UV-I 0 W/m 7,7 C 12,2 C 0,1 km/h (0 Bft)
22.06.2014 23:00 10,2 C 84 % 1020,5 hPa 0,0 l/m 0,1 km/h (0 Bft) O-SO 0,00 h 0,025 mm 0,0 UV-I 0 W/m 7,5 C 10,2 C 0,2 km/h (0 Bft)
Min-Datum _ 17.06.14 18.06.14 19.06.14 - 16.06.14 - - - - - 16.06.14 16.06.14 16.06.14
_ Min-Zeit 14:14 16:50 18:07 - 00:00 - - - - - 05:51 05:27 00:00
Minimum _ 0,0 C 34 % 1012,5 hPa - 0,0 km/h (0 Bft) - - - - - 3,4 C 4,6 C 0,0 km/h (0 Bft)
Max-Datum _ 18.06.14 18.06.14 16.06.14 19.06.14 20.06.14 - 18.06.14 19.06.14 21.06.14 18.06.14 17.06.14 18.06.14 22.06.14
_ Max-Zeit 16:49 03:51 01:16 23:21 18:14 - 18:15 15:00 14:41 13:20 18:30 16:49 15:18
Maximum _ 23,7 C 96 % 1020,7 hPa 0,8 l/m 24,1 km/h
NW (4 Bft)
- 0,07 h 0,635 mm 8,3 UV-I 1259 W/m 13,6 C 23,7 C 33,8 km/h
N (5 Bft)
Durchschnitt _ 14,1 C 71 % 1017,0 hPa #3,2 l/m 4,3 km/h (1 Bft) N #87:16 h #21,002 mm 2,5 UV-I 255 W/m 8,4 C 13,6 C 7,0 km/h (2 Bft)